createdAt,value
2023-10-23T00:01:49.323Z,92.20
2023-10-23T00:04:16.777Z,92.20
2023-10-23T00:06:44.221Z,92.30
2023-10-23T00:09:11.255Z,92.30
2023-10-23T00:11:38.319Z,92.30
2023-10-23T00:14:09.432Z,92.60
2023-10-23T00:16:39.206Z,92.30
2023-10-23T00:19:06.246Z,92.20
2023-10-23T00:21:36.388Z,92.20
2023-10-23T00:24:03.368Z,92.10
2023-10-23T00:26:31.515Z,92.00
2023-10-23T00:29:01.291Z,91.90
2023-10-23T00:31:31.583Z,91.90
2023-10-23T00:33:58.683Z,91.80
2023-10-23T00:36:28.969Z,91.70
2023-10-23T00:38:55.893Z,91.80
2023-10-23T00:41:23.907Z,91.90
2023-10-23T00:43:50.945Z,92.00
2023-10-23T00:46:21.044Z,92.00
2023-10-23T00:48:52.230Z,92.10
2023-10-23T00:51:20.859Z,92.10
2023-10-23T00:53:48.544Z,92.10
2023-10-23T00:56:15.748Z,92.20
2023-10-23T00:58:43.993Z,92.20
2023-10-23T01:01:17.575Z,92.10
2023-10-23T01:03:44.952Z,92.10
2023-10-23T01:06:14.238Z,92.20
2023-10-23T01:08:42.176Z,92.20
2023-10-23T01:11:11.885Z,92.10
2023-10-23T01:13:40.816Z,92.10
2023-10-23T01:16:08.429Z,92.00
2023-10-23T01:18:37.961Z,92.10
2023-10-23T01:21:07.470Z,92.00
2023-10-23T01:23:37.955Z,92.00
2023-10-23T01:26:05.118Z,91.80
2023-10-23T01:28:32.308Z,91.70
2023-10-23T01:31:01.450Z,91.70
2023-10-23T01:33:32.328Z,91.70
2023-10-23T01:35:59.316Z,91.70
2023-10-23T01:38:26.679Z,91.70
2023-10-23T01:40:53.872Z,91.70
2023-10-23T01:43:20.847Z,91.70
2023-10-23T01:45:47.887Z,91.60
2023-10-23T01:48:14.893Z,91.60
2023-10-23T01:50:42.018Z,91.60
2023-10-23T01:53:09.161Z,91.70
2023-10-23T01:55:36.680Z,91.70
2023-10-23T01:58:04.909Z,91.80
2023-10-23T02:00:32.680Z,91.80
2023-10-23T02:03:02.585Z,91.80
2023-10-23T02:05:29.646Z,91.70
2023-10-23T02:07:59.857Z,91.50
2023-10-23T02:10:26.837Z,91.40
2023-10-23T02:12:53.905Z,91.60
2023-10-23T02:15:20.873Z,91.30
2023-10-23T02:17:48.648Z,91.40
2023-10-23T02:20:15.776Z,91.60
2023-10-23T02:22:42.762Z,91.60
2023-10-23T02:25:11.870Z,91.60
2023-10-23T02:27:44.880Z,91.70
2023-10-23T02:30:14.500Z,91.80
2023-10-23T02:32:41.558Z,92.00
2023-10-23T02:35:09.922Z,92.10
2023-10-23T02:37:36.912Z,92.10
2023-10-23T02:40:05.600Z,92.20
2023-10-23T02:42:32.599Z,92.30
2023-10-23T02:45:03.127Z,92.40
2023-10-23T02:47:30.088Z,92.50
2023-10-23T02:49:57.132Z,92.50
2023-10-23T02:52:28.172Z,92.60
2023-10-23T02:54:58.008Z,92.60
2023-10-23T02:57:25.110Z,92.70
2023-10-23T02:59:52.108Z,92.60
2023-10-23T03:02:19.845Z,92.60
2023-10-23T03:04:49.216Z,92.60
2023-10-23T03:07:18.344Z,92.70
2023-10-23T03:09:47.628Z,92.80
2023-10-23T03:12:15.770Z,92.80
2023-10-23T03:14:44.964Z,92.90
2023-10-23T03:17:12.728Z,92.90
2023-10-23T03:19:39.912Z,92.90
2023-10-23T03:22:07.137Z,92.90
2023-10-23T03:24:34.166Z,92.90
2023-10-23T03:27:01.127Z,93.00
2023-10-23T03:29:28.022Z,93.00
2023-10-23T03:31:57.902Z,93.00
2023-10-23T03:34:29.769Z,93.00
2023-10-23T03:36:56.748Z,93.00
2023-10-23T03:39:25.242Z,93.00
2023-10-23T03:41:52.225Z,93.00
2023-10-23T03:44:19.152Z,92.90
2023-10-23T03:46:48.499Z,92.70
2023-10-23T03:49:17.869Z,92.70
2023-10-23T03:51:44.846Z,92.70
2023-10-23T03:54:12.384Z,92.70
2023-10-23T03:56:41.455Z,92.80
2023-10-23T03:59:08.423Z,92.80
2023-10-23T04:01:35.454Z,92.80
2023-10-23T04:04:02.526Z,92.80
2023-10-23T04:06:29.566Z,92.70
2023-10-23T04:08:56.573Z,92.60
2023-10-23T04:11:26.219Z,92.60
2023-10-23T04:13:53.213Z,92.50
2023-10-23T04:16:20.210Z,92.50
2023-10-23T04:18:47.355Z,92.50
2023-10-23T04:21:14.478Z,92.50
2023-10-23T04:23:46.291Z,92.50
2023-10-23T04:26:13.341Z,92.50
2023-10-23T04:28:42.872Z,92.40
2023-10-23T04:31:09.890Z,92.40
2023-10-23T04:33:36.961Z,92.40
2023-10-23T04:36:04.135Z,92.30
2023-10-23T04:38:32.747Z,92.30
2023-10-23T04:40:59.836Z,92.20
2023-10-23T04:43:26.726Z,92.20
2023-10-23T04:45:54.736Z,92.10
2023-10-23T04:48:22.117Z,92.20
2023-10-23T04:50:49.146Z,92.20
2023-10-23T04:53:16.210Z,92.20
2023-10-23T04:55:43.552Z,92.10
2023-10-23T04:58:10.684Z,92.20
2023-10-23T05:00:39.642Z,92.20
2023-10-23T05:03:07.281Z,92.20
2023-10-23T05:05:35.213Z,92.20
2023-10-23T05:08:02.367Z,92.30
2023-10-23T05:10:29.391Z,92.30
2023-10-23T05:12:57.281Z,92.30
2023-10-23T05:15:29.846Z,92.20
2023-10-23T05:17:56.997Z,92.20
2023-10-23T05:20:26.740Z,92.10
2023-10-23T05:22:53.718Z,92.00
2023-10-23T05:25:20.674Z,92.00
2023-10-23T05:27:47.631Z,92.10
2023-10-23T05:30:17.558Z,92.10
2023-10-23T05:32:45.568Z,92.10
2023-10-23T05:35:15.793Z,92.10
2023-10-23T05:37:47.656Z,92.10
2023-10-23T05:40:14.755Z,92.10
2023-10-23T05:42:42.191Z,92.40
2023-10-23T05:45:09.871Z,92.10
2023-10-23T05:47:36.846Z,92.10
2023-10-23T05:50:05.500Z,92.20
2023-10-23T05:52:32.424Z,92.20
2023-10-23T05:55:00.503Z,92.20
2023-10-23T05:57:29.663Z,92.20
2023-10-23T05:59:56.602Z,92.10
2023-10-23T06:02:23.504Z,92.00
2023-10-23T06:04:50.761Z,91.90
2023-10-23T06:07:17.767Z,91.90
2023-10-23T06:09:50.184Z,91.90
2023-10-23T06:12:17.104Z,91.90
2023-10-23T06:14:44.068Z,91.80
2023-10-23T06:17:11.060Z,91.90
2023-10-23T06:19:38.237Z,91.90
2023-10-23T06:22:07.814Z,91.90
2023-10-23T06:24:37.673Z,92.00
2023-10-23T06:27:07.929Z,92.00
2023-10-23T06:29:34.988Z,92.00
2023-10-23T06:32:03.856Z,92.10
2023-10-23T06:34:31.016Z,92.10
2023-10-23T06:37:05.799Z,92.10
2023-10-23T06:39:32.841Z,92.10
2023-10-23T06:41:59.767Z,92.10
2023-10-23T06:44:31.149Z,92.20
2023-10-23T06:46:58.169Z,92.20
2023-10-23T06:49:27.528Z,92.20
2023-10-23T06:51:54.418Z,92.10
2023-10-23T06:54:24.385Z,92.00
2023-10-23T06:56:51.395Z,91.90
2023-10-23T06:59:25.624Z,91.80
2023-10-23T07:01:52.596Z,91.70
2023-10-23T07:04:19.507Z,91.70
2023-10-23T07:06:46.470Z,91.60
2023-10-23T07:09:21.089Z,91.60
2023-10-23T07:11:51.776Z,91.90
2023-10-23T07:14:19.562Z,91.60
2023-10-23T07:16:49.702Z,91.50
2023-10-23T07:19:16.794Z,91.40
2023-10-23T07:21:43.737Z,91.40
2023-10-23T07:24:10.909Z,91.50
2023-10-23T07:26:38.001Z,91.50
2023-10-23T07:29:05.069Z,91.30
2023-10-23T07:31:32.074Z,91.00
2023-10-23T07:33:59.117Z,90.70
2023-10-23T07:36:26.192Z,90.40
2023-10-23T07:38:53.218Z,90.30
2023-10-23T07:41:20.140Z,90.20
2023-10-23T07:43:47.085Z,90.10
2023-10-23T07:46:17.928Z,90.00
2023-10-23T07:48:46.491Z,89.80
2023-10-23T07:51:14.129Z,89.70
2023-10-23T07:53:41.286Z,89.60
2023-10-23T07:56:08.270Z,89.70
2023-10-23T07:58:35.732Z,89.60
2023-10-23T08:01:07.838Z,89.40
2023-10-23T08:03:36.238Z,89.50
2023-10-23T08:06:08.586Z,89.50
2023-10-23T08:08:37.003Z,89.40
2023-10-23T08:11:05.410Z,89.40
2023-10-23T08:13:32.977Z,89.00
2023-10-23T08:16:01.283Z,88.50
2023-10-23T08:18:38.235Z,88.10
2023-10-23T08:21:27.261Z,87.90
2023-10-23T08:23:55.615Z,87.70
2023-10-23T08:26:22.772Z,87.50
2023-10-23T08:29:01.931Z,87.30
2023-10-23T08:31:39.530Z,87.20
2023-10-23T08:34:08.820Z,87.10
2023-10-23T08:36:36.444Z,86.70
2023-10-23T08:39:04.620Z,86.40
2023-10-23T08:41:32.486Z,86.30
2023-10-23T08:43:59.966Z,86.20
2023-10-23T08:46:31.036Z,86.00
2023-10-23T08:48:58.147Z,85.80
2023-10-23T08:51:25.546Z,85.30
2023-10-23T08:54:10.133Z,85.00
2023-10-23T08:56:40.483Z,84.80
2023-10-23T08:59:10.127Z,84.20
2023-10-23T09:01:38.609Z,83.80
2023-10-23T09:04:07.916Z,83.40
2023-10-23T09:06:36.916Z,83.30
2023-10-23T09:09:06.295Z,83.40
2023-10-23T09:11:40.192Z,82.70
2023-10-23T09:14:07.178Z,82.10
2023-10-23T09:16:34.419Z,81.70
2023-10-23T09:19:01.513Z,81.00
2023-10-23T09:21:29.074Z,80.80
2023-10-23T09:23:59.313Z,80.90
2023-10-23T09:26:26.779Z,80.90
2023-10-23T09:28:54.285Z,80.50
2023-10-23T09:31:22.802Z,80.70
2023-10-23T09:33:51.737Z,81.00
2023-10-23T09:36:19.786Z,81.20
2023-10-23T09:39:01.366Z,81.30
2023-10-23T09:41:29.092Z,80.40
2023-10-23T09:43:58.548Z,80.10
2023-10-23T09:46:27.358Z,80.10
2023-10-23T09:49:00.905Z,79.50
2023-10-23T09:51:42.537Z,79.70
2023-10-23T09:54:21.551Z,79.30
2023-10-23T09:56:55.921Z,78.50
2023-10-23T09:59:56.631Z,77.90
2023-10-23T10:02:28.746Z,77.40
2023-10-23T10:05:10.213Z,77.20
2023-10-23T10:07:40.223Z,76.90
2023-10-23T10:10:08.671Z,76.20
2023-10-23T10:12:38.957Z,75.50
2023-10-23T10:15:13.422Z,75.50
2023-10-23T10:17:44.638Z,75.50
2023-10-23T10:20:12.636Z,75.30
2023-10-23T10:22:44.988Z,74.90
2023-10-23T10:25:12.999Z,74.60
2023-10-23T10:27:40.139Z,74.20
2023-10-23T10:30:27.392Z,74.50
2023-10-23T10:34:18.280Z,73.60
2023-10-23T10:36:02.144Z,72.80
2023-10-23T10:38:33.375Z,72.60
2023-10-23T10:41:02.510Z,72.40
2023-10-23T10:43:39.141Z,72.40
2023-10-23T10:46:15.882Z,72.30
2023-10-23T10:48:45.300Z,72.20
2023-10-23T10:51:25.891Z,71.50
2023-10-23T10:54:04.815Z,71.00
2023-10-23T10:56:32.201Z,70.80
2023-10-23T10:59:06.196Z,69.40
2023-10-23T11:01:34.460Z,68.80
2023-10-23T11:04:02.629Z,68.10
2023-10-23T11:06:30.767Z,68.90
2023-10-23T11:08:59.775Z,69.40
2023-10-23T11:11:27.975Z,69.20
2023-10-23T11:13:55.932Z,68.40
2023-10-23T11:16:24.033Z,67.40
2023-10-23T11:18:52.690Z,66.30
2023-10-23T11:21:24.213Z,65.50
2023-10-23T11:23:54.912Z,65.30
2023-10-23T11:26:21.935Z,65.30
2023-10-23T11:28:48.937Z,66.00
2023-10-23T11:31:16.006Z,66.30
2023-10-23T11:33:42.893Z,66.70
2023-10-23T11:36:10.377Z,66.80
2023-10-23T11:38:38.990Z,66.60
2023-10-23T11:41:05.966Z,66.20
2023-10-23T11:43:32.870Z,65.80
2023-10-23T11:46:00.044Z,66.20
2023-10-23T11:48:27.235Z,64.70
2023-10-23T11:50:54.940Z,64.90
2023-10-23T11:53:22.103Z,65.50
2023-10-23T11:55:50.420Z,65.30
2023-10-23T11:58:28.289Z,64.20
2023-10-23T12:00:55.292Z,63.80
2023-10-23T12:03:22.275Z,62.80
2023-10-23T12:05:49.301Z,62.90
2023-10-23T12:08:16.313Z,64.40
2023-10-23T12:10:43.205Z,65.20
2023-10-23T12:13:10.216Z,64.80
2023-10-23T12:15:37.325Z,62.80
2023-10-23T12:18:04.776Z,62.10
2023-10-23T12:20:32.639Z,60.60
2023-10-23T12:22:59.928Z,59.90
2023-10-23T12:25:26.981Z,59.20
2023-10-23T12:27:54.131Z,58.80
2023-10-23T12:30:23.565Z,58.80
2023-10-23T12:33:16.054Z,58.10
2023-10-23T12:35:40.303Z,59.00
2023-10-23T12:38:07.384Z,59.50
2023-10-23T12:40:37.011Z,60.00
2023-10-23T12:43:05.295Z,61.00
2023-10-23T12:45:33.064Z,61.00
2023-10-23T12:48:00.428Z,61.50
2023-10-23T12:50:27.597Z,62.50
2023-10-23T12:52:54.674Z,60.90
2023-10-23T12:55:21.820Z,61.30
2023-10-23T12:57:48.852Z,61.80
2023-10-23T13:00:16.225Z,61.80
2023-10-23T13:02:46.189Z,62.20
2023-10-23T13:05:13.261Z,62.10
2023-10-23T13:07:40.507Z,61.60
2023-10-23T13:10:07.933Z,61.80
2023-10-23T13:12:35.903Z,61.20
2023-10-23T13:15:04.366Z,60.90
2023-10-23T13:17:31.805Z,61.60
2023-10-23T13:19:58.987Z,62.50
2023-10-23T13:22:50.767Z,62.80
2023-10-23T13:25:19.820Z,62.30
2023-10-23T13:27:46.953Z,62.30
2023-10-23T13:30:13.910Z,62.50
2023-10-23T13:32:41.019Z,62.70
2023-10-23T13:35:09.149Z,62.60
2023-10-23T13:37:36.491Z,63.20
2023-10-23T13:40:07.944Z,63.30
2023-10-23T13:42:38.595Z,64.10
2023-10-23T13:45:06.672Z,64.10
2023-10-23T13:47:33.710Z,65.00
2023-10-23T13:50:00.879Z,65.10
2023-10-23T13:52:28.318Z,65.70
2023-10-23T13:54:59.711Z,66.10
2023-10-23T13:57:26.917Z,66.40
2023-10-23T13:59:54.752Z,66.40
2023-10-23T14:02:21.839Z,66.70
2023-10-23T14:04:49.501Z,66.50
2023-10-23T14:07:16.660Z,66.30
2023-10-23T14:09:47.382Z,66.00
2023-10-23T14:12:17.077Z,66.20
2023-10-23T14:14:44.363Z,66.50
2023-10-23T14:17:11.487Z,67.20
2023-10-23T14:19:48.029Z,67.80
2023-10-23T14:22:17.465Z,68.10
2023-10-23T14:24:44.738Z,68.70
2023-10-23T14:27:11.697Z,69.70
2023-10-23T14:29:39.287Z,70.30
2023-10-23T14:32:07.295Z,70.70
2023-10-23T14:34:34.523Z,70.60
2023-10-23T14:37:01.739Z,70.70
2023-10-23T14:39:28.877Z,70.80
2023-10-23T14:41:56.247Z,71.00
2023-10-23T14:44:26.597Z,71.40
2023-10-23T14:46:53.714Z,71.90
2023-10-23T14:49:22.939Z,72.60
2023-10-23T14:51:52.140Z,72.50
2023-10-23T14:54:19.140Z,72.80
2023-10-23T14:56:46.131Z,73.30
2023-10-23T14:59:13.593Z,73.90
2023-10-23T15:01:40.645Z,74.50
2023-10-23T15:04:08.047Z,75.10
2023-10-23T15:06:34.956Z,75.70
2023-10-23T15:09:01.878Z,76.30
2023-10-23T15:11:28.836Z,76.60
2023-10-23T15:13:55.860Z,76.80
2023-10-23T15:16:22.905Z,76.90
2023-10-23T15:18:53.032Z,78.00
2023-10-23T15:21:20.369Z,77.80
2023-10-23T15:23:47.341Z,78.10
2023-10-23T15:26:14.584Z,78.30
2023-10-23T15:28:42.015Z,78.70
2023-10-23T15:31:09.301Z,79.00
2023-10-23T15:33:37.115Z,79.20
2023-10-23T15:36:06.224Z,79.60
2023-10-23T15:38:34.103Z,80.00
2023-10-23T15:41:11.688Z,80.50
2023-10-23T15:43:39.789Z,81.50
2023-10-23T15:46:12.886Z,81.80
2023-10-23T15:48:40.731Z,82.50
2023-10-23T15:51:07.923Z,82.70
2023-10-23T15:53:34.899Z,83.10
2023-10-23T15:56:02.230Z,83.20
2023-10-23T15:58:29.802Z,83.60
2023-10-23T16:00:58.101Z,84.10
2023-10-23T16:03:25.382Z,84.50
2023-10-23T16:05:52.488Z,84.80
2023-10-23T16:08:19.601Z,85.00
2023-10-23T16:10:51.410Z,85.40
2023-10-23T16:13:19.707Z,85.60
2023-10-23T16:15:48.104Z,85.80
2023-10-23T16:18:18.748Z,86.00
2023-10-23T16:20:51.191Z,86.20
2023-10-23T16:23:18.483Z,86.60
2023-10-23T16:25:45.710Z,86.80
2023-10-23T16:28:13.870Z,87.00
2023-10-23T16:30:41.464Z,87.00
2023-10-23T16:33:11.964Z,86.80
2023-10-23T16:35:39.055Z,86.70
2023-10-23T16:38:07.254Z,86.70
2023-10-23T16:40:35.476Z,86.40
2023-10-23T16:43:03.191Z,86.30
2023-10-23T16:45:32.510Z,86.20
2023-10-23T16:48:01.327Z,86.10
2023-10-23T16:50:31.199Z,86.00
2023-10-23T16:53:01.900Z,85.60
2023-10-23T16:55:29.278Z,85.00
2023-10-23T16:57:57.359Z,84.40
2023-10-23T17:00:24.511Z,84.00
2023-10-23T17:02:51.703Z,83.60
2023-10-23T17:05:18.775Z,83.40
2023-10-23T17:07:45.900Z,83.20
2023-10-23T17:10:12.826Z,83.30
2023-10-23T17:12:39.850Z,83.40
2023-10-23T17:15:07.395Z,83.50
2023-10-23T17:17:35.548Z,83.40
2023-10-23T17:20:02.628Z,83.50
2023-10-23T17:22:29.601Z,83.50
2023-10-23T17:24:56.618Z,83.60
2023-10-23T17:27:23.689Z,83.60
2023-10-23T17:29:50.554Z,83.60
2023-10-23T17:32:17.488Z,83.60
2023-10-23T17:34:44.400Z,83.60
2023-10-23T17:37:11.407Z,83.60
2023-10-23T17:39:38.632Z,83.60
2023-10-23T17:42:05.769Z,83.80
2023-10-23T17:44:32.924Z,83.90
2023-10-23T17:46:59.972Z,84.00
2023-10-23T17:49:27.046Z,84.20
2023-10-23T17:51:55.902Z,84.40
2023-10-23T17:54:23.129Z,84.70
2023-10-23T17:56:50.001Z,84.80
2023-10-23T17:59:16.888Z,85.00
2023-10-23T18:01:44.470Z,85.30
2023-10-23T18:04:12.364Z,85.50
2023-10-23T18:06:39.754Z,85.60
2023-10-23T18:09:06.944Z,85.70
2023-10-23T18:11:34.296Z,85.80
2023-10-23T18:14:01.540Z,86.00
2023-10-23T18:16:29.166Z,86.10
2023-10-23T18:18:56.531Z,86.30
2023-10-23T18:21:24.256Z,86.50
2023-10-23T18:23:52.443Z,86.60
2023-10-23T18:26:19.925Z,86.90
2023-10-23T18:28:47.065Z,87.10
2023-10-23T18:31:15.060Z,87.30
2023-10-23T18:33:42.237Z,87.40
2023-10-23T18:36:19.864Z,87.50
2023-10-23T18:38:47.684Z,87.80
2023-10-23T18:41:18.951Z,87.90
2023-10-23T18:43:46.504Z,88.20
2023-10-23T18:46:14.714Z,88.30
2023-10-23T18:48:42.467Z,88.40
2023-10-23T18:51:12.982Z,88.60
2023-10-23T18:53:41.485Z,88.60
2023-10-23T18:56:08.500Z,88.80
2023-10-23T18:58:35.520Z,88.80
2023-10-23T19:01:09.100Z,88.90
2023-10-23T19:03:37.320Z,88.90
2023-10-23T19:06:04.386Z,89.60
2023-10-23T19:08:32.608Z,89.10
2023-10-23T19:10:59.999Z,89.20
2023-10-23T19:13:27.019Z,89.30
2023-10-23T19:16:01.233Z,89.40
2023-10-23T19:18:30.812Z,89.60
2023-10-23T19:21:14.182Z,89.60
2023-10-23T19:23:42.511Z,89.70
2023-10-23T19:26:13.356Z,89.80
2023-10-23T19:28:40.268Z,89.90
2023-10-23T19:31:23.122Z,90.00
2023-10-23T19:33:50.611Z,90.00
2023-10-23T19:36:19.696Z,90.10
2023-10-23T19:38:49.310Z,90.10
2023-10-23T19:41:19.238Z,90.20
2023-10-23T19:43:50.015Z,90.30
2023-10-23T19:46:20.749Z,90.40
2023-10-23T19:48:49.342Z,90.50
2023-10-23T19:51:20.706Z,90.90
2023-10-23T19:53:52.902Z,90.70
2023-10-23T19:56:28.077Z,90.80
2023-10-23T19:58:58.515Z,90.80
2023-10-23T20:01:25.562Z,90.90
2023-10-23T20:03:52.647Z,91.00
2023-10-23T20:06:19.588Z,91.10
2023-10-23T20:08:46.574Z,91.10
2023-10-23T20:11:13.781Z,91.10
2023-10-23T20:13:40.732Z,91.20
2023-10-23T20:16:07.740Z,91.30
2023-10-23T20:18:36.268Z,91.40
2023-10-23T20:21:04.650Z,91.50
2023-10-23T20:23:32.343Z,91.70
2023-10-23T20:25:59.354Z,91.80
2023-10-23T20:28:26.386Z,91.80
2023-10-23T20:30:53.421Z,91.90
2023-10-23T20:33:20.500Z,92.00
2023-10-23T20:35:47.559Z,92.10
2023-10-23T20:38:14.482Z,92.20
2023-10-23T20:40:41.592Z,92.30
2023-10-23T20:43:08.729Z,92.40
2023-10-23T20:45:38.831Z,92.50
2023-10-23T20:48:07.267Z,92.60
2023-10-23T20:50:34.223Z,92.60
2023-10-23T20:53:01.111Z,92.70
2023-10-23T20:55:28.189Z,92.80
2023-10-23T20:57:55.247Z,92.80
2023-10-23T21:00:22.269Z,92.80
2023-10-23T21:02:49.468Z,92.90
2023-10-23T21:05:16.547Z,92.90
2023-10-23T21:07:43.791Z,92.90
2023-10-23T21:10:11.233Z,93.00
2023-10-23T21:12:38.268Z,93.10
2023-10-23T21:15:05.558Z,93.10
2023-10-23T21:17:32.547Z,93.20
2023-10-23T21:19:59.573Z,93.30
2023-10-23T21:22:27.760Z,93.40
2023-10-23T21:24:54.906Z,93.50
2023-10-23T21:27:22.444Z,93.50
2023-10-23T21:29:49.500Z,93.60
2023-10-23T21:32:16.413Z,93.60
2023-10-23T21:34:43.560Z,93.60
2023-10-23T21:37:10.731Z,93.70
2023-10-23T21:39:37.726Z,93.80
2023-10-23T21:42:04.874Z,93.80
2023-10-23T21:44:31.854Z,94.00
2023-10-23T21:46:58.987Z,94.00
2023-10-23T21:49:26.078Z,94.10
2023-10-23T21:51:53.406Z,94.10
2023-10-23T21:54:20.541Z,94.20
2023-10-23T21:57:19.776Z,94.20
2023-10-23T21:59:35.532Z,94.30
2023-10-23T22:02:03.466Z,94.40
2023-10-23T22:04:30.694Z,94.50
2023-10-23T22:06:57.877Z,94.60
2023-10-23T22:09:25.115Z,94.60
2023-10-23T22:11:53.326Z,94.70
2023-10-23T22:14:20.545Z,94.70
2023-10-23T22:16:47.688Z,94.70
2023-10-23T22:19:14.717Z,94.80
2023-10-23T22:21:41.714Z,94.80
2023-10-23T22:24:08.810Z,94.90
2023-10-23T22:26:35.816Z,94.90
2023-10-23T22:29:03.249Z,94.90
2023-10-23T22:31:30.244Z,94.90
2023-10-23T22:33:57.268Z,95.00
2023-10-23T22:36:24.256Z,95.10
2023-10-23T22:38:51.436Z,95.10
2023-10-23T22:41:18.745Z,95.20
2023-10-23T22:43:45.707Z,95.20
2023-10-23T22:46:12.755Z,95.20
2023-10-23T22:48:39.844Z,95.20
2023-10-23T22:51:07.208Z,95.20
2023-10-23T22:53:36.762Z,95.20
2023-10-23T22:56:04.119Z,95.20
2023-10-23T22:58:32.293Z,95.20
2023-10-23T23:01:00.023Z,95.20
2023-10-23T23:03:27.893Z,95.30
2023-10-23T23:06:06.939Z,95.30
2023-10-23T23:08:40.306Z,95.30
2023-10-23T23:11:07.657Z,95.30
2023-10-23T23:13:35.178Z,95.40
2023-10-23T23:16:06.359Z,95.40
2023-10-23T23:18:36.420Z,95.40
2023-10-23T23:21:07.048Z,95.50
2023-10-23T23:23:34.190Z,95.50
2023-10-23T23:26:01.213Z,95.50
2023-10-23T23:28:28.152Z,95.60
2023-10-23T23:30:55.158Z,95.60
2023-10-23T23:33:22.261Z,95.70
2023-10-23T23:35:49.283Z,95.80
2023-10-23T23:38:16.335Z,95.90
2023-10-23T23:40:43.414Z,96.00
2023-10-23T23:43:10.434Z,96.10
2023-10-23T23:45:37.556Z,96.10
2023-10-23T23:48:04.863Z,96.20
2023-10-23T23:50:31.883Z,96.20
2023-10-23T23:52:59.444Z,96.20
2023-10-23T23:55:27.944Z,96.50
2023-10-23T23:57:54.963Z,96.30
